Terminal Aerodrome Forecast
Issued by NWS

Home | Current Version | Previous Version | Text Only | Print | Product List | Glossary Off
Versions: 1 2 3 4 5 6 7 8 9 10 11 12 13 14

000
FTUS43 KBIS 131700
TAFDIK
TAF
KDIK 131724Z 1318/1418 30018G25KT P6SM SCT035
     FM132000 29018G26KT P6SM SCT035 BKN050
     FM140000 31012KT P6SM SCT060=

USA.gov is the U.S. government's official web portal to all federal, state and local government web resources and services.